Yountville, CA (94599)

11:26 AM PST on February 10, 2016 (GMT -0800)
KCAYOUNT3 | | Change Station
CLOSE
Current Station
Personal Weather Station
Location: Yountville, CA
Elevation: 161 ft
Nearby Weather Stations

Elev 161 ft 38.40 °N, 122.38 °W | Updated 13 minutes ago

Partly Cloudy
Partly Cloudy
60.9 °F
Feels Like 60.9 °F
N
1.0
Wind Variable Wind from SW
Gusts 2.0 mph

Today
High -- | Low -- °F
--% Chance of Precip.
Yesterday
High -- | Low -- °F
Precip. -- in
Pressure 30.27 in
Visibility 10.0 miles
Clouds Clear
Dew Point 53 °F
Humidity 76%
Rainfall 0.00 in
Snow Depth Not available.
7:06 AM 5:41 PM
Waxing Crescent, 7% visible
METAR KAPC 101854Z 00000KT 10SM CLR 14/11 A3029 RMK AO2 SLP248 T01390106
Pressure 30.27 in
Visibility 10.0 miles
Clouds Clear
Dew Point 53 °F
Humidity 76%
Rainfall 0.00 in
Snow Depth Not available.
7:06 AM 5:41 PM
Waxing Crescent, 7% visible
METAR KAPC 101854Z 00000KT 10SM CLR 14/11 A3029 RMK AO2 SLP248 T01390106

10-Day Weather Forecast

Almanac

Astronomy

Feb. 10, 2016 Rise Set
Actual Time
Civil Twilight
Nautical Twilight
Astronomical Twilight
Moon
Length of Visible Light
Length of Day
Tomorrow will be .
, % of the Moon is Illuminated

Today's Extremes

State Highs State Lows

Community

WunderPhotos

Upload Photos

1,891,922 photos uploaded!

WunderBlog® & News

Nearby

Air Quality

  Air Quality AQ Index Pollutant
Not available.

Snow Depth

Station Depth Elevation

Earthquake Activity

City Distance Mag. Time & Date
Minimum magnitude displayed is 2.5.

Coastal Water Temperatures

Place Temperature

Stations

Nearby Weather Stations

Station Location Temp. Windchill Dew Point Humidity Wind Precip. Elev Updated Type
                   

Watches & Warnings

There are currently no watches in effect.